Aviation Digital Data Service (ADDS)

Output produced by METARs form (1348 UTC 26 February 2021)
found at http://www.aviationweather.gov/metar/data/
 
METAR text: RJNK 261300Z 04015KT 9999 FEW040 BKN/// 04/M03 Q1025
Conditions at: RJNK (KOMATSU (CIV/JAS, JP) observed 1300 UTC 26 February 2021
Temperature: 4.0°C (39°F)
Dewpoint: -3.0°C (27°F) [RH = 60%]
Pressure (altimeter): 30.27 inches Hg (1025.0 mb)
Winds: from the NE (40 degrees) at 17 MPH (15 knots; 7.7 m/s)
Visibility: 6 or more miles (10+ km)
Ceiling: at least 12,000 feet AGL
Clouds: few clouds at 4000 feet AGL
Weather: no significant weather observed at this time

Forecast for: RJNK (KOMATSU (CIV/JAS, JP)
Text: TAF RJNK 261107Z 2612/2718 04014KT 9999 FEW030
Forecast period: 1200 UTC 26 February 2021 to 1200 UTC 27 February 2021
Forecast type: FROM: standard forecast or significant change
Winds: from the NE (40 degrees) at 16 MPH (14 knots; 7.2 m/s)
Visibility: 6 or more miles (10+ km)
Ceiling: at least 12,000 feet AGL
Clouds: few clouds at 3000 feet AGL
Weather: no significant weather forecast for this period
Text: BECMG 2712/2715 12004KT
Forecast period: 1200 to 1800 UTC 27 February 2021
Forecast type: BECOMING: Conditions expected to become as follows by 1500 UTC 27 February 2021
Winds: from the ESE (120 degrees) at 5 MPH (4 knots; 2.1 m/s)
Visibility: 6 or more miles (10+ km)
Ceiling: at least 12,000 feet AGL
Clouds: few clouds at 3000 feet AGL
Weather: no significant weather forecast for this period